Time;durP1;ratioP1;P1;durP2;ratioP2;P2;SDS_P1;SDS_P2;PMS_P1;PMS_P2;Temp;Humidity;BMP_temperature;BMP_pressure;BME280_temperature;BME280_humidity;BME280_pressure;Samples;Min_cycle;Max_cycle;Signal;HPM_P1;HPM_P2
2021/05/23 00:00:15;;;;;;;0.85;0.60;;;7.60;99.90;;;;;;2106080;28;20272;-64
2021/05/23 00:01:16;;;;;;;1.00;0.60;;;7.60;99.90;;;;;;2105717;28;20179;-64
2021/05/23 00:02:18;;;;;;;0.80;0.70;;;7.50;99.90;;;;;;2105879;28;20252;-65
2021/05/23 00:03:19;;;;;;;0.95;0.70;;;7.50;99.90;;;;;;2105813;28;20642;-65
2021/05/23 00:04:19;;;;;;;1.95;0.70;;;7.50;99.90;;;;;;2105770;28;20198;-65
2021/05/23 00:05:23;;;;;;;1.27;0.80;;;7.60;99.90;;;;;;2105724;28;20649;-64
2021/05/23 00:06:24;;;;;;;1.95;0.77;;;7.60;99.90;;;;;;2105901;28;20203;-65
2021/05/23 00:07:27;;;;;;;1.25;0.70;;;7.70;99.90;;;;;;2105617;28;20292;-65
2021/05/23 00:08:28;;;;;;;1.27;0.80;;;7.70;99.90;;;;;;2105890;28;20223;-65
2021/05/23 00:09:29;;;;;;;0.87;0.87;;;7.80;99.90;;;;;;2105092;28;20551;-64
2021/05/23 00:10:33;;;;;;;1.48;0.90;;;7.80;99.90;;;;;;2106355;28;20840;-65
2021/05/23 00:11:34;;;;;;;1.05;0.90;;;7.70;99.90;;;;;;2106084;28;20176;-65
2021/05/23 00:12:34;;;;;;;1.50;0.90;;;7.70;99.90;;;;;;2105875;28;20577;-65
2021/05/23 00:13:48;;;;;;;0.80;0.80;;;7.70;99.90;;;;;;2105638;28;20266;-65
2021/05/23 00:14:49;;;;;;;1.48;0.70;;;7.70;99.90;;;;;;2105743;28;20799;-64
2021/05/23 00:16:03;;;;;;;0.73;0.67;;;7.60;99.90;;;;;;2105626;28;20258;-65
2021/05/23 00:17:04;;;;;;;0.85;0.70;;;7.50;99.90;;;;;;2105874;28;20246;-64
2021/05/23 00:18:07;;;;;;;2.15;0.80;;;7.50;99.90;;;;;;2105659;28;20175;-65
2021/05/23 00:19:08;;;;;;;0.75;0.75;;;7.50;99.90;;;;;;2105836;28;20187;-64
2021/05/23 00:20:10;;;;;;;1.87;0.70;;;7.60;99.90;;;;;;2105767;28;20294;-65
2021/05/23 00:21:14;;;;;;;1.10;0.80;;;7.60;99.90;;;;;;2104902;28;20183;-65
2021/05/23 00:22:15;;;;;;;1.05;0.60;;;7.60;99.90;;;;;;2105176;28;20205;-65
2021/05/23 00:23:16;;;;;;;0.80;0.80;;;7.60;99.90;;;;;;2105808;28;20176;-65
2021/05/23 00:24:17;;;;;;;1.30;0.80;;;7.60;99.90;;;;;;2105742;28;20183;-65
2021/05/23 00:25:21;;;;;;;0.80;0.80;;;7.60;99.90;;;;;;2105799;28;20194;-64
2021/05/23 00:26:23;;;;;;;1.40;0.80;;;7.60;99.90;;;;;;2105462;28;20210;-64
2021/05/23 00:27:23;;;;;;;0.93;0.60;;;7.60;99.90;;;;;;2105135;28;20175;-64
2021/05/23 00:28:25;;;;;;;1.73;0.70;;;7.60;99.90;;;;;;2105024;28;20186;-65
2021/05/23 00:29:25;;;;;;;0.60;0.60;;;7.60;99.90;;;;;;2105760;28;20191;-64
2021/05/23 00:30:27;;;;;;;1.50;0.80;;;7.60;99.90;;;;;;2105620;28;20183;-64
2021/05/23 00:31:28;;;;;;;1.08;0.70;;;7.60;99.90;;;;;;2105325;28;20179;-64
2021/05/23 00:32:28;;;;;;;1.88;0.70;;;7.60;99.90;;;;;;2105478;28;20704;-64
2021/05/23 00:33:31;;;;;;;0.80;0.80;;;7.50;99.90;;;;;;2105686;28;20174;-65
2021/05/23 00:34:31;;;;;;;0.75;0.70;;;7.50;99.90;;;;;;2104450;28;20263;-65
2021/05/23 00:35:33;;;;;;;0.60;0.60;;;7.50;99.90;;;;;;2104736;28;20185;-64
2021/05/23 00:36:34;;;;;;;0.63;0.63;;;7.50;99.90;;;;;;2104892;28;20755;-63
2021/05/23 00:37:35;;;;;;;0.77;0.70;;;7.50;99.90;;;;;;2105128;28;20180;-64
2021/05/23 00:38:35;;;;;;;0.60;0.60;;;7.40;99.90;;;;;;2105544;28;20254;-64
2021/05/23 00:39:36;;;;;;;1.77;0.77;;;7.40;99.90;;;;;;2105786;28;20175;-64
2021/05/23 00:40:40;;;;;;;0.60;0.60;;;7.50;99.90;;;;;;2105573;28;20175;-64
2021/05/23 00:41:41;;;;;;;0.50;0.50;;;7.50;99.90;;;;;;2104836;28;20640;-64
2021/05/23 00:42:42;;;;;;;1.30;0.73;;;7.50;99.90;;;;;;2104925;28;20179;-64
2021/05/23 00:43:43;;;;;;;0.70;0.70;;;7.50;99.90;;;;;;2105776;28;20552;-64
2021/05/23 00:44:44;;;;;;;1.30;0.80;;;7.50;99.90;;;;;;2105687;28;20240;-64
2021/05/23 00:45:48;;;;;;;2.47;0.68;;;7.50;99.90;;;;;;2105596;28;20194;-64
2021/05/23 00:46:49;;;;;;;2.03;0.88;;;7.50;99.90;;;;;;2105542;28;20188;-64
2021/05/23 00:47:50;;;;;;;1.13;0.80;;;7.60;99.90;;;;;;2105570;28;20183;-64
2021/05/23 00:48:51;;;;;;;0.90;0.70;;;7.60;99.90;;;;;;2105689;28;20179;-64
2021/05/23 00:49:51;;;;;;;1.67;1.10;;;7.70;99.90;;;;;;2105741;28;20171;-64
2021/05/23 00:50:53;;;;;;;1.17;0.90;;;7.60;99.90;;;;;;2105615;28;20178;-64
2021/05/23 00:51:54;;;;;;;2.05;1.45;;;7.60;99.90;;;;;;2104866;28;20207;-64
2021/05/23 00:52:56;;;;;;;4.00;1.98;;;7.70;99.90;;;;;;2104851;28;20190;-64
2021/05/23 00:53:56;;;;;;;2.20;1.50;;;7.70;99.90;;;;;;2105748;28;20179;-64
2021/05/23 00:54:57;;;;;;;2.60;1.57;;;7.70;99.90;;;;;;2105624;28;20179;-64
2021/05/23 00:55:58;;;;;;;2.10;1.60;;;7.70;99.90;;;;;;2105121;28;20210;-64
2021/05/23 00:56:59;;;;;;;1.95;1.42;;;7.70;99.90;;;;;;2105075;28;20176;-64
2021/05/23 00:58:00;;;;;;;1.63;1.48;;;7.70;99.90;;;;;;2105652;28;20273;-64
2021/05/23 00:59:01;;;;;;;2.67;1.70;;;7.70;99.90;;;;;;2105557;28;20179;-64
2021/05/23 01:00:04;;;;;;;2.73;1.47;;;7.70;99.90;;;;;;2105691;28;20425;-64
2021/05/23 01:01:13;;;;;;;1.75;1.10;;;7.80;99.90;;;;;;2105473;28;20258;-64
2021/05/23 01:02:40;;;;;;;1.55;1.10;;;7.80;99.90;;;;;;2105680;28;20259;-64
2021/05/23 01:03:49;;;;;;;1.73;0.90;;;7.80;99.90;;;;;;2105379;28;20190;-63
2021/05/23 01:04:50;;;;;;;1.42;0.63;;;7.70;99.90;;;;;;2105695;28;20243;-64
2021/05/23 01:06:06;;;;;;;1.00;0.80;;;7.70;99.90;;;;;;2105518;28;20232;-64
2021/05/23 01:07:07;;;;;;;1.25;0.57;;;7.70;99.90;;;;;;2105676;28;20167;-64
2021/05/23 01:08:08;;;;;;;1.05;0.80;;;7.70;99.90;;;;;;2105645;28;20179;-64
2021/05/23 01:09:09;;;;;;;1.57;0.77;;;7.70;99.90;;;;;;2105525;28;20181;-64
2021/05/23 01:10:23;;;;;;;0.60;0.60;;;7.60;99.90;;;;;;2105486;28;20175;-64
2021/05/23 01:11:23;;;;;;;1.05;0.68;;;7.70;99.90;;;;;;2104672;28;20237;-64
2021/05/23 01:12:24;;;;;;;0.60;0.60;;;7.70;99.90;;;;;;2105074;28;20182;-64
2021/05/23 01:13:57;;;;;;;1.63;0.70;;;7.60;99.90;;;;;;2105553;28;20183;-64
2021/05/23 01:15:00;;;;;;;1.02;0.80;;;7.50;99.90;;;;;;2105389;28;20175;-64
2021/05/23 01:16:10;;;;;;;0.88;0.80;;;7.40;99.90;;;;;;2104914;28;20201;-64
2021/05/23 01:17:13;;;;;;;1.05;0.73;;;7.40;99.90;;;;;;2097880;28;20164;-64
2021/05/23 01:18:17;;;;;;;0.65;0.55;;;7.30;99.90;;;;;;2104906;28;20175;-64
2021/05/23 01:19:33;;;;;;;1.20;0.63;;;7.30;99.90;;;;;;2105521;28;20202;-64
2021/05/23 01:20:59;;;;;;;0.55;0.47;;;7.20;99.90;;;;;;2104646;28;20169;-63
2021/05/23 01:22:12;;;;;;;0.90;0.70;;;7.20;99.90;;;;;;2099717;28;20213;-63
2021/05/23 01:23:29;;;;;;;0.90;0.70;;;7.20;99.90;;;;;;2098119;28;20171;-63
2021/05/23 01:25:01;;;;;;;0.70;0.55;;;7.20;99.90;;;;;;2098896;28;20176;-64
2021/05/23 01:26:09;;;;;;;0.90;0.70;;;7.20;99.90;;;;;;2104874;28;20691;-63
2021/05/23 01:27:12;;;;;;;1.25;1.15;;;7.20;99.90;;;;;;2105143;28;20175;-64
2021/05/23 01:28:17;;;;;;;1.15;0.70;;;7.10;99.90;;;;;;2097493;28;20187;-64
2021/05/23 01:29:18;;;;;;;0.60;0.60;;;7.10;99.90;;;;;;2104944;28;20170;-64
2021/05/23 01:30:30;;;;;;;0.98;0.80;;;7.10;99.90;;;;;;2105446;28;20211;-63
2021/05/23 01:31:33;;;;;;;1.00;0.90;;;7.20;99.90;;;;;;2105157;28;20159;-64
2021/05/23 01:32:38;;;;;;;1.00;0.90;;;7.20;99.90;;;;;;2104762;28;20299;-63
2021/05/23 01:33:39;;;;;;;1.90;0.80;;;7.20;99.90;;;;;;2088589;28;20757;-63
2021/05/23 01:34:40;;;;;;;1.40;0.85;;;7.20;99.90;;;;;;2096278;28;20634;-63
2021/05/23 01:35:46;;;;;;;1.90;0.70;;;7.10;99.90;;;;;;2104809;28;20185;-63
2021/05/23 01:36:49;;;;;;;2.40;1.13;;;7.10;99.90;;;;;;2104770;28;20162;-63
2021/05/23 01:37:59;;;;;;;1.00;0.80;;;7.00;99.90;;;;;;2105469;28;20634;-63
2021/05/23 01:39:02;;;;;;;0.93;0.60;;;7.00;99.90;;;;;;2105342;28;20915;-63
2021/05/23 01:40:04;;;;;;;2.63;0.82;;;7.00;99.90;;;;;;2105475;28;20183;-64
2021/05/23 01:41:08;;;;;;;0.60;0.60;;;7.00;99.90;;;;;;2105337;28;20622;-64
2021/05/23 01:42:10;;;;;;;1.40;0.60;;;7.10;99.90;;;;;;2105342;28;20182;-63
2021/05/23 01:43:12;;;;;;;0.50;0.50;;;7.10;99.90;;;;;;2104764;28;20183;-64
2021/05/23 01:44:13;;;;;;;1.30;0.50;;;7.10;99.90;;;;;;2104880;28;20186;-64
2021/05/23 01:45:15;;;;;;;0.90;0.60;;;7.00;99.90;;;;;;2105231;28;20202;-64
2021/05/23 01:46:16;;;;;;;0.82;0.60;;;7.00;99.90;;;;;;2106081;28;20205;-63
2021/05/23 01:47:17;;;;;;;0.75;0.60;;;7.00;99.90;;;;;;2106236;28;20182;-64
2021/05/23 01:48:18;;;;;;;0.83;0.60;;;7.00;99.90;;;;;;2098096;28;20198;-64
2021/05/23 01:49:19;;;;;;;0.50;0.50;;;7.00;99.90;;;;;;2106289;28;20175;-64
2021/05/23 01:50:20;;;;;;;1.50;0.80;;;7.00;99.90;;;;;;2106561;28;20670;-64
2021/05/23 01:51:21;;;;;;;1.67;0.77;;;7.00;99.90;;;;;;2106112;28;20190;-64
2021/05/23 01:52:22;;;;;;;1.23;0.80;;;6.90;99.90;;;;;;2106902;28;20287;-63
2021/05/23 01:53:23;;;;;;;1.00;0.70;;;6.90;99.90;;;;;;2106957;28;20179;-63
2021/05/23 01:54:24;;;;;;;0.98;0.70;;;6.90;99.90;;;;;;2107092;28;20568;-64
2021/05/23 01:55:25;;;;;;;0.90;0.73;;;7.00;99.90;;;;;;2106414;28;20192;-64
2021/05/23 01:56:27;;;;;;;1.13;0.85;;;7.00;99.90;;;;;;2106298;28;20195;-64
2021/05/23 01:57:27;;;;;;;1.20;0.73;;;7.00;99.90;;;;;;2106801;28;20179;-63
2021/05/23 01:58:28;;;;;;;0.80;0.70;;;6.90;99.90;;;;;;2106943;28;20170;-64
2021/05/23 01:59:29;;;;;;;0.73;0.60;;;7.00;99.90;;;;;;2106965;28;20254;-63
2021/05/23 02:00:33;;;;;;;1.53;0.80;;;6.90;99.90;;;;;;2107049;28;20178;-64
2021/05/23 02:01:34;;;;;;;0.70;0.52;;;7.00;99.90;;;;;;2106631;28;20738;-64
2021/05/23 02:02:35;;;;;;;0.97;0.70;;;7.00;99.90;;;;;;2107013;28;20179;-64
2021/05/23 02:03:35;;;;;;;0.73;0.60;;;7.00;99.90;;;;;;2105985;28;20190;-63
2021/05/23 02:04:36;;;;;;;0.80;0.60;;;7.00;99.90;;;;;;2097894;28;20237;-64
2021/05/23 02:05:42;;;;;;;0.93;0.70;;;7.00;99.90;;;;;;2097668;28;20182;-63
2021/05/23 02:06:43;;;;;;;0.50;0.50;;;6.90;99.90;;;;;;2098698;28;20251;-63
2021/05/23 02:07:45;;;;;;;1.37;0.53;;;6.90;99.90;;;;;;2106204;28;20559;-64
2021/05/23 02:08:46;;;;;;;0.60;0.60;;;6.90;99.90;;;;;;2106019;28;20187;-64
2021/05/23 02:09:47;;;;;;;1.08;0.70;;;6.80;99.90;;;;;;2106145;28;20190;-64
2021/05/23 02:10:51;;;;;;;1.10;0.50;;;6.80;99.90;;;;;;2106311;28;20195;-64
2021/05/23 02:11:55;;;;;;;0.75;0.70;;;6.80;99.90;;;;;;2105744;28;20207;-64
2021/05/23 02:13:03;;;;;;;0.73;0.47;;;6.80;99.90;;;;;;2106964;28;20251;-63
2021/05/23 02:14:04;;;;;;;0.50;0.50;;;6.90;99.90;;;;;;2106634;28;20165;-63
2021/05/23 02:15:06;;;;;;;0.63;0.60;;;6.90;99.90;;;;;;2106812;28;20179;-64
2021/05/23 02:16:08;;;;;;;0.90;0.63;;;6.80;99.90;;;;;;2106572;28;20197;-63
2021/05/23 02:17:08;;;;;;;0.50;0.50;;;6.80;99.90;;;;;;2109326;28;20178;-64
2021/05/23 02:18:10;;;;;;;0.80;0.77;;;6.80;99.90;;;;;;2106648;28;20175;-63
2021/05/23 02:19:11;;;;;;;0.77;0.73;;;6.80;99.90;;;;;;2106860;28;20183;-64
2021/05/23 02:20:26;;;;;;;0.83;0.70;;;6.80;99.90;;;;;;2106761;28;20857;-64
2021/05/23 02:21:27;;;;;;;0.70;0.70;;;6.80;99.90;;;;;;2106654;28;20162;-64
2021/05/23 02:22:28;;;;;;;0.50;0.50;;;6.80;99.90;;;;;;2106775;28;20657;-64
2021/05/23 02:23:30;;;;;;;1.13;0.70;;;6.80;99.90;;;;;;2106738;28;20203;-64
2021/05/23 02:24:30;;;;;;;0.60;0.60;;;6.80;99.90;;;;;;2106485;28;20680;-64
2021/05/23 02:25:34;;;;;;;0.67;0.60;;;6.90;99.90;;;;;;2106828;28;20175;-63
2021/05/23 02:26:34;;;;;;;1.13;0.60;;;6.90;99.90;;;;;;2106620;28;20179;-64
2021/05/23 02:27:52;;;;;;;0.70;0.60;;;6.90;99.90;;;;;;2106794;28;20210;-64
2021/05/23 02:28:53;;;;;;;0.60;0.50;;;6.90;99.90;;;;;;2106726;28;20560;-63
2021/05/23 02:29:54;;;;;;;0.70;0.70;;;6.90;99.90;;;;;;2106596;28;20203;-63
2021/05/23 02:30:57;;;;;;;0.60;0.50;;;6.80;99.90;;;;;;2106792;28;20163;-63
2021/05/23 02:31:58;;;;;;;0.60;0.50;;;6.80;99.90;;;;;;2106473;28;20221;-63
2021/05/23 02:32:59;;;;;;;1.30;0.60;;;6.80;99.90;;;;;;2106695;28;20254;-63
2021/05/23 02:33:59;;;;;;;0.70;0.60;;;6.80;99.90;;;;;;2106892;28;20171;-63
2021/05/23 02:35:01;;;;;;;1.67;0.60;;;6.80;99.90;;;;;;2105950;28;20182;-63
2021/05/23 02:36:02;;;;;;;0.50;0.50;;;6.90;99.90;;;;;;2105917;28;20282;-63
2021/05/23 02:37:02;;;;;;;1.95;0.60;;;6.90;99.90;;;;;;2106690;28;20201;-63
2021/05/23 02:38:06;;;;;;;1.03;0.60;;;6.90;99.90;;;;;;2106698;28;20185;-63
2021/05/23 02:39:07;;;;;;;1.13;0.70;;;6.90;99.90;;;;;;2105827;28;20595;-63
2021/05/23 02:40:12;;;;;;;0.50;0.50;;;6.90;99.90;;;;;;2105969;28;20178;-63
2021/05/23 02:41:13;;;;;;;1.33;0.80;;;6.90;99.90;;;;;;2106176;28;20637;-63
2021/05/23 02:42:14;;;;;;;0.83;0.50;;;6.90;99.90;;;;;;2106762;28;20191;-63
2021/05/23 02:44:19;;;;;;;1.80;1.00;;;6.90;99.90;;;;;;2094825;22;20248;-68
2021/05/23 02:45:20;;;;;;;1.17;0.83;;;6.90;99.90;;;;;;2074327;28;20194;-67
2021/05/23 02:46:21;;;;;;;0.70;0.70;;;7.00;99.90;;;;;;2074120;28;20185;-68
2021/05/23 02:47:21;;;;;;;0.63;0.57;;;6.90;99.90;;;;;;2065526;28;20179;-68
2021/05/23 02:48:22;;;;;;;0.90;0.80;;;7.00;99.90;;;;;;2065455;28;20186;-68
2021/05/23 02:49:23;;;;;;;0.60;0.60;;;7.00;99.90;;;;;;2073872;28;20182;-68
2021/05/23 02:50:27;;;;;;;1.03;0.43;;;7.00;99.90;;;;;;2073716;28;20188;-67
2021/05/23 02:51:28;;;;;;;0.82;0.60;;;7.00;99.90;;;;;;2073679;28;20644;-67
2021/05/23 02:52:28;;;;;;;1.10;0.57;;;6.90;99.90;;;;;;2074366;28;20205;-67
2021/05/23 02:53:30;;;;;;;1.40;0.63;;;6.90;99.90;;;;;;2073947;28;20558;-67
2021/05/23 02:54:30;;;;;;;0.55;0.52;;;6.90;99.90;;;;;;2073370;28;20185;-67
2021/05/23 02:55:32;;;;;;;1.73;0.60;;;6.90;99.90;;;;;;2070629;28;20199;-67
2021/05/23 02:56:33;;;;;;;0.80;0.80;;;6.80;99.90;;;;;;2076081;28;20185;-66
2021/05/23 02:57:35;;;;;;;1.23;0.60;;;6.70;99.90;;;;;;2076013;28;20240;-69
2021/05/23 02:58:36;;;;;;;1.38;0.50;;;6.70;99.90;;;;;;2078828;28;20177;-69
2021/05/23 02:59:36;;;;;;;0.60;0.60;;;6.70;99.90;;;;;;2081433;28;20632;-69
2021/05/23 03:00:38;;;;;;;1.03;0.57;;;6.70;99.90;;;;;;2090416;28;20183;-69
2021/05/23 03:01:38;;;;;;;1.23;0.80;;;6.70;99.90;;;;;;2089939;28;20643;-69
2021/05/23 03:02:39;;;;;;;1.53;0.70;;;6.70;99.90;;;;;;2090539;28;20173;-69
2021/05/23 03:03:40;;;;;;;0.98;0.70;;;6.70;99.90;;;;;;2089919;28;20282;-68
2021/05/23 03:04:41;;;;;;;2.17;0.73;;;6.80;99.90;;;;;;2090384;28;20206;-68
2021/05/23 03:05:42;;;;;;;1.83;0.70;;;6.80;99.90;;;;;;2090153;28;20184;-68
2021/05/23 03:06:42;;;;;;;1.58;0.90;;;6.80;99.90;;;;;;2090075;28;20189;-68
2021/05/23 03:07:47;;;;;;;1.43;0.73;;;6.70;99.90;;;;;;2089924;28;20180;-68
2021/05/23 03:08:48;;;;;;;1.20;0.65;;;6.80;99.90;;;;;;2090052;28;20172;-68
2021/05/23 03:09:49;;;;;;;0.97;0.70;;;6.70;99.90;;;;;;2090047;28;20177;-68
2021/05/23 03:10:52;;;;;;;2.47;0.63;;;6.60;99.90;;;;;;2090396;28;20176;-69
2021/05/23 03:11:53;;;;;;;1.88;0.82;;;6.60;99.90;;;;;;2089966;28;20211;-68
2021/05/23 03:12:55;;;;;;;1.65;0.70;;;6.60;99.90;;;;;;2090188;28;20529;-68
2021/05/23 03:13:55;;;;;;;1.70;0.77;;;6.50;99.90;;;;;;2090089;28;20222;-70
2021/05/23 03:14:56;;;;;;;1.83;0.80;;;6.60;99.90;;;;;;2090475;28;20783;-69
2021/05/23 03:15:57;;;;;;;2.40;0.87;;;6.60;99.90;;;;;;2090148;28;20254;-69
2021/05/23 03:16:58;;;;;;;1.63;0.90;;;6.60;99.90;;;;;;2090100;28;20177;-69
2021/05/23 03:17:59;;;;;;;0.70;0.70;;;6.60;99.90;;;;;;2090127;28;20240;-69
2021/05/23 03:19:00;;;;;;;1.88;0.85;;;6.60;99.90;;;;;;2090106;28;20180;-69
2021/05/23 03:20:00;;;;;;;1.53;0.90;;;6.70;99.90;;;;;;2090059;28;20172;-67
2021/05/23 03:21:01;;;;;;;0.83;0.70;;;6.60;99.90;;;;;;2090085;28;20263;-68
2021/05/23 03:22:05;;;;;;;1.17;0.77;;;6.60;99.90;;;;;;2089706;28;20267;-67
2021/05/23 03:23:06;;;;;;;2.90;0.70;;;6.70;99.90;;;;;;2089978;28;20725;-67
2021/05/23 03:24:07;;;;;;;0.90;0.73;;;6.70;99.90;;;;;;2080879;28;20205;-67
2021/05/23 03:25:11;;;;;;;1.67;0.80;;;6.60;99.90;;;;;;2081097;28;20191;-67
2021/05/23 03:26:11;;;;;;;1.20;0.77;;;6.60;99.90;;;;;;2089876;28;20208;-67
2021/05/23 03:27:12;;;;;;;1.10;0.67;;;6.50;99.90;;;;;;2089782;28;20613;-68
2021/05/23 03:28:13;;;;;;;1.90;0.80;;;6.50;99.90;;;;;;2090015;28;20212;-68
2021/05/23 03:29:14;;;;;;;0.80;0.70;;;6.50;99.90;;;;;;2089689;28;20173;-68
2021/05/23 03:30:47;;;;;;;0.70;0.70;;;6.50;99.90;;;;;;2090016;28;20180;-68
2021/05/23 03:31:47;;;;;;;1.15;0.80;;;6.50;99.90;;;;;;2056070;28;20362;-68
2021/05/23 03:32:48;;;;;;;1.43;0.70;;;6.50;99.90;;;;;;2079511;28;20560;-68
2021/05/23 03:33:49;;;;;;;2.13;0.73;;;6.50;99.90;;;;;;2089867;28;20203;-67
2021/05/23 03:34:50;;;;;;;1.47;0.80;;;6.50;99.90;;;;;;2089731;28;20681;-69
2021/05/23 03:35:50;;;;;;;0.80;0.70;;;6.50;99.90;;;;;;2089963;28;20222;-67
2021/05/23 03:36:51;;;;;;;0.67;0.67;;;6.50;99.90;;;;;;2089802;28;20627;-68
2021/05/23 03:37:53;;;;;;;0.77;0.60;;;6.50;99.90;;;;;;2090179;28;20180;-68
2021/05/23 03:38:54;;;;;;;0.60;0.60;;;6.40;99.90;;;;;;2081082;28;20823;-67
2021/05/23 03:39:54;;;;;;;0.80;0.60;;;6.40;99.90;;;;;;2081360;28;20216;-68
2021/05/23 03:40:55;;;;;;;1.93;0.80;;;6.30;99.90;;;;;;2090051;28;20569;-69
2021/05/23 03:41:56;;;;;;;2.50;0.80;;;6.20;99.90;;;;;;2090131;28;20176;-67
2021/05/23 03:42:57;;;;;;;1.05;0.70;;;6.30;99.90;;;;;;2089829;28;20180;-68
2021/05/23 03:43:58;;;;;;;2.78;0.70;;;6.30;99.90;;;;;;2089820;28;20610;-68
2021/05/23 03:44:58;;;;;;;1.73;0.80;;;6.40;99.90;;;;;;2089972;28;20183;-68
2021/05/23 03:45:59;;;;;;;1.20;0.67;;;6.40;99.90;;;;;;2090006;28;20566;-68
2021/05/23 03:47:00;;;;;;;0.80;0.80;;;6.40;99.90;;;;;;2090314;28;20177;-69
2021/05/23 03:48:01;;;;;;;1.20;0.63;;;6.40;99.90;;;;;;2089890;28;20191;-68
2021/05/23 03:49:03;;;;;;;1.23;0.70;;;6.40;99.90;;;;;;2081190;28;20311;-68
2021/05/23 03:50:08;;;;;;;1.02;0.70;;;6.40;99.90;;;;;;2072910;28;20236;-68
2021/05/23 03:51:09;;;;;;;1.25;0.70;;;6.40;99.90;;;;;;2073119;28;20188;-67
2021/05/23 03:52:11;;;;;;;0.63;0.63;;;6.40;99.90;;;;;;2080589;28;20237;-67
2021/05/23 03:53:11;;;;;;;0.80;0.60;;;6.40;99.90;;;;;;2080967;28;20275;-68
2021/05/23 03:54:12;;;;;;;1.27;0.87;;;6.30;99.90;;;;;;2080703;28;20209;-68
2021/05/23 03:55:13;;;;;;;0.60;0.60;;;6.30;99.90;;;;;;2089689;28;20175;-67
2021/05/23 03:56:14;;;;;;;1.52;0.70;;;6.30;99.90;;;;;;2089471;28;20677;-67
2021/05/23 03:57:15;;;;;;;0.97;0.70;;;6.30;99.90;;;;;;2089602;28;20259;-67
2021/05/23 03:58:17;;;;;;;2.60;0.90;;;6.30;99.90;;;;;;2080485;28;20283;-68
2021/05/23 03:59:17;;;;;;;1.00;0.60;;;6.20;99.90;;;;;;2080767;28;20244;-68
2021/05/23 04:00:21;;;;;;;2.50;0.90;;;6.20;99.90;;;;;;2080692;28;20177;-67
2021/05/23 04:01:22;;;;;;;1.15;0.70;;;6.30;99.90;;;;;;2080946;28;20173;-67
2021/05/23 04:02:23;;;;;;;1.47;0.70;;;6.30;99.90;;;;;;2089472;28;20314;-68
2021/05/23 04:03:26;;;;;;;1.33;0.80;;;6.30;99.90;;;;;;2089487;28;20208;-67
2021/05/23 04:04:45;;;;;;;1.20;0.70;;;6.30;99.90;;;;;;2089501;28;20835;-68
2021/05/23 04:05:46;;;;;;;3.10;0.90;;;6.30;99.90;;;;;;2089650;28;20198;-67
2021/05/23 04:06:49;;;;;;;0.70;0.70;;;6.40;99.90;;;;;;2080361;28;20200;-68
2021/05/23 04:07:51;;;;;;;2.40;0.70;;;6.30;99.90;;;;;;2081003;28;20562;-68
2021/05/23 04:08:52;;;;;;;1.42;0.80;;;6.30;99.90;;;;;;2089275;28;20187;-68
2021/05/23 04:09:54;;;;;;;2.10;1.00;;;6.30;99.90;;;;;;2080664;28;20235;-68
2021/05/23 04:11:04;;;;;;;0.90;0.80;;;6.30;99.90;;;;;;2080935;28;20613;-69
2021/05/23 04:12:07;;;;;;;2.53;0.70;;;6.30;99.90;;;;;;2079765;28;20263;-67
2021/05/23 04:13:09;;;;;;;1.02;0.80;;;6.30;99.90;;;;;;2080525;28;20247;-68
2021/05/23 04:14:11;;;;;;;1.83;0.65;;;6.30;99.90;;;;;;2080610;28;20225;-69
2021/05/23 04:15:14;;;;;;;0.82;0.80;;;6.30;99.90;;;;;;2081160;28;20185;-68
2021/05/23 04:16:15;;;;;;;0.80;0.55;;;6.30;99.90;;;;;;2081118;28;20575;-68
2021/05/23 04:17:15;;;;;;;1.77;0.87;;;6.30;99.90;;;;;;2080460;28;20180;-68
2021/05/23 04:18:16;;;;;;;1.90;0.80;;;6.20;99.90;;;;;;2080528;28;20184;-67
2021/05/23 04:19:17;;;;;;;2.30;0.77;;;6.20;99.90;;;;;;2081124;28;20268;-68
2021/05/23 04:20:21;;;;;;;2.87;0.90;;;6.30;99.90;;;;;;2081245;28;20229;-68
2021/05/23 04:21:21;;;;;;;1.45;0.70;;;6.40;99.90;;;;;;2080350;28;20189;-68
2021/05/23 04:22:23;;;;;;;1.00;0.70;;;6.40;99.90;;;;;;2080635;28;20764;-68
2021/05/23 04:23:24;;;;;;;1.23;0.90;;;6.50;99.90;;;;;;2088292;28;20179;-68
2021/05/23 04:24:24;;;;;;;1.52;0.70;;;6.50;99.90;;;;;;2080626;28;20191;-67
2021/05/23 04:25:26;;;;;;;1.60;0.83;;;6.40;99.90;;;;;;2080395;28;20268;-68
2021/05/23 04:26:27;;;;;;;1.20;0.70;;;6.40;99.90;;;;;;2081195;28;20184;-68
2021/05/23 04:27:27;;;;;;;1.93;0.70;;;6.30;99.90;;;;;;2080953;28;20192;-68
2021/05/23 04:28:28;;;;;;;1.20;0.80;;;6.40;99.90;;;;;;2080913;28;20287;-68
2021/05/23 04:29:31;;;;;;;0.70;0.60;;;6.40;99.90;;;;;;2081063;28;20180;-68
2021/05/23 04:30:32;;;;;;;1.90;0.75;;;6.40;99.90;;;;;;2080452;28;20751;-67
2021/05/23 04:31:33;;;;;;;1.20;0.70;;;6.30;99.90;;;;;;2080095;28;20185;-68
2021/05/23 04:32:34;;;;;;;2.73;1.50;;;6.30;99.90;;;;;;2081068;28;20284;-68
2021/05/23 04:33:35;;;;;;;1.20;0.80;;;6.30;99.90;;;;;;2080798;28;20663;-68
2021/05/23 04:34:37;;;;;;;1.03;0.70;;;6.30;99.90;;;;;;2081128;28;20185;-69
2021/05/23 04:35:39;;;;;;;1.40;0.50;;;6.40;99.90;;;;;;2088511;28;20285;-68
2021/05/23 04:36:39;;;;;;;2.35;0.70;;;6.30;99.90;;;;;;2088474;28;20551;-68
2021/05/23 04:37:41;;;;;;;0.50;0.50;;;6.30;99.90;;;;;;2080232;28;20267;-68
2021/05/23 04:38:42;;;;;;;2.50;0.93;;;6.30;99.90;;;;;;2081048;28;20189;-68
2021/05/23 04:39:43;;;;;;;1.07;0.70;;;6.30;99.90;;;;;;2080738;28;20753;-68
2021/05/23 04:40:44;;;;;;;1.15;0.70;;;6.20;99.90;;;;;;2080857;28;20180;-68
2021/05/23 04:41:45;;;;;;;1.50;0.73;;;6.30;99.90;;;;;;2080644;28;20191;-68
2021/05/23 04:42:47;;;;;;;0.87;0.60;;;6.20;99.90;;;;;;2080858;28;20586;-68
2021/05/23 04:43:48;;;;;;;0.95;0.63;;;6.30;99.90;;;;;;2080594;28;20686;-69
2021/05/23 04:44:49;;;;;;;1.53;0.70;;;6.30;99.90;;;;;;2080785;28;20180;-68
2021/05/23 04:45:50;;;;;;;1.13;0.70;;;6.20;99.90;;;;;;2080802;28;20919;-68
2021/05/23 04:46:51;;;;;;;1.80;0.83;;;6.30;99.90;;;;;;2080847;28;20184;-68
2021/05/23 04:47:52;;;;;;;1.63;0.80;;;6.30;99.90;;;;;;2080775;28;20181;-68
2021/05/23 04:48:53;;;;;;;1.53;0.87;;;6.30;99.90;;;;;;2080232;28;20176;-68
2021/05/23 04:49:54;;;;;;;1.38;0.80;;;6.40;99.90;;;;;;2071912;28;20587;-68
2021/05/23 04:50:54;;;;;;;1.43;0.70;;;6.40;99.90;;;;;;2080152;28;20181;-68
2021/05/23 04:51:56;;;;;;;2.43;0.90;;;6.50;99.90;;;;;;2088050;28;20745;-68
2021/05/23 04:52:56;;;;;;;2.00;0.90;;;6.50;99.90;;;;;;2080270;28;20707;-68
2021/05/23 04:53:57;;;;;;;2.13;0.90;;;6.50;99.90;;;;;;2080054;28;20197;-69
2021/05/23 04:54:58;;;;;;;1.33;0.77;;;6.50;99.90;;;;;;2080856;28;20176;-68
2021/05/23 04:55:59;;;;;;;2.58;0.93;;;6.40;99.90;;;;;;2074859;28;20199;-69
2021/05/23 04:57:00;;;;;;;1.60;0.70;;;6.40;99.90;;;;;;2072514;28;20559;-68
2021/05/23 04:58:02;;;;;;;1.43;0.70;;;6.40;99.90;;;;;;2072491;28;20181;-69
2021/05/23 04:59:03;;;;;;;0.77;0.68;;;6.30;99.90;;;;;;2063958;28;20418;-69
2021/05/23 05:00:09;;;;;;;1.93;0.73;;;6.30;99.90;;;;;;2063833;28;20194;-68
2021/05/23 05:01:10;;;;;;;0.80;0.60;;;6.40;99.90;;;;;;2063751;28;20170;-69
2021/05/23 05:02:10;;;;;;;1.27;0.73;;;6.40;99.90;;;;;;2063697;28;20269;-69
2021/05/23 05:03:11;;;;;;;1.67;0.80;;;6.40;99.90;;;;;;2072650;28;20648;-68
2021/05/23 05:04:12;;;;;;;3.07;1.17;;;6.40;99.90;;;;;;2072516;28;20351;-69
2021/05/23 05:05:14;;;;;;;1.53;0.90;;;6.40;99.90;;;;;;2072791;28;20613;-72
2021/05/23 05:06:14;;;;;;;1.40;1.10;;;6.40;99.90;;;;;;2072541;28;20185;-69
2021/05/23 05:07:16;;;;;;;1.60;1.20;;;6.30;99.90;;;;;;2072888;28;20190;-68
2021/05/23 05:08:16;;;;;;;3.17;1.33;;;6.30;99.90;;;;;;2064019;28;20186;-69
2021/05/23 05:09:17;;;;;;;3.43;1.30;;;6.30;99.90;;;;;;2064010;28;20189;-69
2021/05/23 05:10:18;;;;;;;2.30;1.10;;;6.30;99.90;;;;;;2063923;28;20186;-68
2021/05/23 05:11:19;;;;;;;4.87;0.90;;;6.30;99.90;;;;;;2055491;28;20190;-69
2021/05/23 05:12:20;;;;;;;0.60;0.60;;;6.30;99.90;;;;;;2063893;28;20204;-68
2021/05/23 05:13:21;;;;;;;0.60;0.60;;;6.30;99.90;;;;;;2072507;28;20178;-69
2021/05/23 05:14:21;;;;;;;0.60;0.50;;;6.20;99.90;;;;;;2063822;28;20182;-69
2021/05/23 05:15:22;;;;;;;0.40;0.40;;;6.10;99.90;;;;;;2063782;28;20271;-69
2021/05/23 05:16:23;;;;;;;1.97;0.50;;;6.00;99.90;;;;;;2072620;28;20178;-69
2021/05/23 05:17:23;;;;;;;1.13;0.63;;;5.80;99.90;;;;;;2072466;28;20605;-69
2021/05/23 05:18:24;;;;;;;0.60;0.60;;;5.70;99.90;;;;;;2072688;28;20181;-69
2021/05/23 05:19:25;;;;;;;1.20;0.50;;;5.70;99.90;;;;;;2072632;28;20180;-69
2021/05/23 05:20:27;;;;;;;1.20;0.50;;;5.70;99.90;;;;;;2063953;28;20183;-69
2021/05/23 05:21:27;;;;;;;0.52;0.40;;;5.70;99.90;;;;;;2064786;28;20192;-70
2021/05/23 05:22:28;;;;;;;0.40;0.40;;;5.70;99.90;;;;;;2074192;28;20187;-69
2021/05/23 05:23:29;;;;;;;1.10;0.60;;;5.80;99.90;;;;;;2074173;28;20250;-69
2021/05/23 05:24:30;;;;;;;0.60;0.40;;;5.80;99.90;;;;;;2074301;28;20617;-69
2021/05/23 05:25:31;;;;;;;0.70;0.60;;;5.80;99.90;;;;;;2074265;28;20230;-69
2021/05/23 05:26:31;;;;;;;0.95;0.50;;;5.90;99.90;;;;;;2073863;28;20251;-69
2021/05/23 05:27:32;;;;;;;0.70;0.50;;;5.90;99.90;;;;;;2065645;28;20196;-69
2021/05/23 05:28:33;;;;;;;1.10;0.50;;;5.90;99.90;;;;;;2065932;28;20196;-69
2021/05/23 05:29:34;;;;;;;1.40;0.80;;;6.00;99.90;;;;;;2074437;28;20185;-69
2021/05/23 05:30:34;;;;;;;0.77;0.70;;;6.00;99.90;;;;;;2074676;28;20732;-69